createdAt,value
2022-10-30T00:00:37.854Z,10.76
2022-10-30T00:03:05.874Z,10.78
2022-10-30T00:05:33.734Z,10.76
2022-10-30T00:08:01.835Z,10.77
2022-10-30T00:10:31.703Z,10.77
2022-10-30T00:13:00.485Z,10.74
2022-10-30T00:15:28.429Z,10.76
2022-10-30T00:17:56.852Z,10.76
2022-10-30T00:20:24.965Z,10.73
2022-10-30T00:22:52.733Z,10.70
2022-10-30T00:25:20.420Z,10.70
2022-10-30T00:27:49.947Z,10.68
2022-10-30T00:30:17.879Z,10.64
2022-10-30T00:32:45.621Z,10.60
2022-10-30T00:35:13.262Z,10.60
2022-10-30T00:37:40.791Z,10.53
2022-10-30T00:40:14.920Z,10.53
2022-10-30T00:42:42.959Z,10.51
2022-10-30T00:45:15.111Z,10.50
2022-10-30T00:47:43.476Z,10.48
2022-10-30T00:50:15.938Z,10.45
2022-10-30T00:52:49.433Z,10.41
2022-10-30T00:55:22.556Z,10.43
2022-10-30T00:57:50.951Z,10.43
2022-10-30T01:00:29.467Z,10.40
2022-10-30T01:02:58.742Z,10.43
2022-10-30T01:05:32.621Z,10.43
2022-10-30T01:08:00.647Z,10.44
2022-10-30T01:10:28.823Z,10.43
2022-10-30T01:12:58.593Z,10.44
2022-10-30T01:15:33.323Z,10.42
2022-10-30T01:18:21.012Z,10.41
2022-10-30T01:21:12.847Z,10.41
2022-10-30T01:24:00.058Z,10.41
2022-10-30T01:26:37.294Z,10.39
2022-10-30T01:29:20.593Z,10.40
2022-10-30T01:32:12.842Z,10.37
2022-10-30T01:34:47.284Z,10.39
2022-10-30T01:37:22.123Z,10.36
2022-10-30T01:39:49.986Z,10.36
2022-10-30T01:42:43.967Z,10.35
2022-10-30T01:45:15.958Z,10.34
2022-10-30T01:47:59.143Z,10.36
2022-10-30T01:50:37.127Z,10.33
2022-10-30T01:53:13.360Z,10.31
2022-10-30T01:55:50.178Z,10.34
2022-10-30T01:58:22.753Z,10.34
2022-10-30T02:00:57.020Z,10.36
2022-10-30T02:03:26.683Z,10.38
2022-10-30T02:05:54.909Z,10.37
2022-10-30T02:08:23.139Z,10.41
2022-10-30T02:10:53.113Z,10.41
2022-10-30T02:13:21.382Z,10.41
2022-10-30T02:15:49.927Z,10.41
2022-10-30T02:18:17.744Z,10.39
2022-10-30T02:20:46.865Z,10.41
2022-10-30T02:23:15.473Z,10.35
2022-10-30T02:25:43.072Z,10.31
2022-10-30T02:28:10.676Z,10.33
2022-10-30T02:30:40.750Z,10.28
2022-10-30T02:33:08.638Z,10.29
2022-10-30T02:35:36.270Z,10.30
2022-10-30T02:38:05.519Z,10.30
2022-10-30T02:40:34.403Z,10.27
2022-10-30T02:43:02.309Z,10.33
2022-10-30T02:45:30.475Z,10.35
2022-10-30T02:48:00.228Z,10.37
2022-10-30T02:50:28.431Z,10.33
2022-10-30T02:52:59.411Z,10.29
2022-10-30T02:55:28.704Z,10.31
2022-10-30T02:57:56.580Z,10.32
2022-10-30T03:00:24.556Z,10.32
2022-10-30T03:02:55.310Z,10.31
2022-10-30T03:05:23.085Z,10.31
2022-10-30T03:07:54.222Z,10.25
2022-10-30T03:10:21.837Z,10.24
2022-10-30T03:12:51.087Z,10.22
2022-10-30T03:15:19.031Z,10.22
2022-10-30T03:17:46.760Z,10.18
2022-10-30T03:20:14.525Z,10.19
2022-10-30T03:22:43.453Z,10.20
2022-10-30T03:25:11.021Z,10.23
2022-10-30T03:27:39.402Z,10.25
2022-10-30T03:30:10.735Z,10.26
2022-10-30T03:32:38.872Z,10.28
2022-10-30T03:35:06.743Z,10.29
2022-10-30T03:37:35.589Z,10.30
2022-10-30T03:40:03.288Z,10.28
2022-10-30T03:42:32.486Z,10.25
2022-10-30T03:45:00.325Z,10.26
2022-10-30T03:47:29.255Z,10.27
2022-10-30T03:49:57.711Z,10.24
2022-10-30T03:52:25.635Z,10.23
2022-10-30T03:54:53.679Z,10.22
2022-10-30T03:57:21.387Z,10.22
2022-10-30T03:59:51.085Z,10.20
2022-10-30T04:04:49.521Z,10.20
2022-10-30T04:07:17.752Z,10.14
2022-10-30T04:09:45.319Z,10.16
2022-10-30T04:12:12.872Z,10.17
2022-10-30T04:14:42.114Z,10.15
2022-10-30T04:19:42.960Z,10.11
2022-10-30T04:22:12.352Z,10.10
2022-10-30T04:24:39.897Z,10.11
2022-10-30T04:27:07.726Z,10.10
2022-10-30T04:29:35.273Z,10.14
2022-10-30T04:32:02.985Z,10.16
2022-10-30T04:34:30.750Z,10.17
2022-10-30T04:36:58.333Z,10.11
2022-10-30T04:39:27.296Z,10.12
2022-10-30T04:41:55.099Z,10.12
2022-10-30T04:44:22.772Z,10.11
2022-10-30T04:46:51.233Z,10.10
2022-10-30T04:49:18.921Z,10.08
2022-10-30T04:51:46.467Z,10.08
2022-10-30T04:54:14.057Z,10.09
2022-10-30T04:56:43.670Z,10.11
2022-10-30T04:59:11.200Z,10.14
2022-10-30T05:01:42.594Z,10.17
2022-10-30T05:04:10.448Z,10.15
2022-10-30T05:06:38.796Z,10.20
2022-10-30T05:09:06.889Z,10.23
2022-10-30T05:11:34.877Z,10.23
2022-10-30T05:14:03.853Z,10.28
2022-10-30T05:16:31.524Z,10.32
2022-10-30T05:18:59.841Z,10.36
2022-10-30T05:21:29.508Z,10.38
2022-10-30T05:24:00.862Z,10.43
2022-10-30T05:26:29.260Z,10.45
2022-10-30T05:28:56.855Z,10.46
2022-10-30T05:31:26.011Z,10.49
2022-10-30T05:33:53.877Z,10.51
2022-10-30T05:36:21.581Z,10.54
2022-10-30T05:38:49.530Z,10.57
2022-10-30T05:41:17.083Z,10.59
2022-10-30T05:43:45.135Z,10.59
2022-10-30T05:46:13.773Z,10.65
2022-10-30T05:48:42.870Z,10.71
2022-10-30T05:51:10.690Z,10.75
2022-10-30T05:53:40.423Z,10.80
2022-10-30T05:56:07.968Z,10.85
2022-10-30T05:58:39.813Z,10.90
2022-10-30T06:01:08.628Z,10.94
2022-10-30T06:03:36.442Z,10.98
2022-10-30T06:06:06.536Z,11.08
2022-10-30T06:08:34.248Z,11.15
2022-10-30T06:11:04.020Z,11.21
2022-10-30T06:13:31.758Z,11.29
2022-10-30T06:16:03.011Z,11.34
2022-10-30T06:18:30.792Z,11.39
2022-10-30T06:20:58.422Z,11.45
2022-10-30T06:23:28.471Z,11.49
2022-10-30T06:25:56.827Z,11.56
2022-10-30T06:28:25.173Z,11.59
2022-10-30T06:30:54.399Z,11.64
2022-10-30T06:33:22.955Z,11.69
2022-10-30T06:35:50.735Z,11.74
2022-10-30T06:38:18.402Z,11.81
2022-10-30T06:40:48.518Z,11.87
2022-10-30T06:43:16.148Z,11.96
2022-10-30T06:45:44.483Z,11.98
2022-10-30T06:48:12.085Z,12.04
2022-10-30T06:50:41.407Z,12.08
2022-10-30T06:53:09.405Z,12.12
2022-10-30T06:55:37.637Z,12.14
2022-10-30T06:58:06.797Z,12.09
2022-10-30T07:00:35.795Z,12.24
2022-10-30T07:03:03.596Z,12.31
2022-10-30T07:05:32.114Z,12.37
2022-10-30T07:07:59.855Z,12.43
2022-10-30T07:10:30.420Z,12.50
2022-10-30T07:12:58.576Z,12.59
2022-10-30T07:15:28.567Z,12.69
2022-10-30T07:17:58.256Z,12.79
2022-10-30T07:20:28.033Z,12.92
2022-10-30T07:22:55.955Z,13.00
2022-10-30T07:25:23.766Z,13.09
2022-10-30T07:27:54.664Z,13.14
2022-10-30T07:30:24.297Z,13.16
2022-10-30T07:33:01.466Z,13.29
2022-10-30T07:35:30.644Z,13.33
2022-10-30T07:38:02.840Z,13.39
2022-10-30T07:40:30.987Z,13.47
2022-10-30T07:42:59.538Z,13.53
2022-10-30T07:45:27.813Z,13.57
2022-10-30T07:47:56.036Z,13.63
2022-10-30T07:50:25.453Z,13.73
2022-10-30T07:52:54.348Z,13.81
2022-10-30T07:55:22.097Z,13.90
2022-10-30T07:57:50.511Z,13.99
2022-10-30T08:00:18.504Z,14.05
2022-10-30T08:02:50.230Z,14.00
2022-10-30T08:05:18.539Z,14.04
2022-10-30T08:07:48.303Z,14.07
2022-10-30T08:10:16.358Z,14.09
2022-10-30T08:12:45.025Z,14.12
2022-10-30T08:15:12.682Z,14.16
2022-10-30T08:18:00.712Z,14.11
2022-10-30T08:20:28.586Z,14.08
2022-10-30T08:23:01.400Z,14.08
2022-10-30T08:25:30.297Z,14.07
2022-10-30T08:27:59.720Z,14.05
2022-10-30T08:30:30.108Z,14.00
2022-10-30T08:32:58.271Z,13.93
2022-10-30T08:35:27.199Z,13.91
2022-10-30T08:37:56.236Z,13.88
2022-10-30T08:40:26.777Z,13.85
2022-10-30T08:42:56.027Z,13.85
2022-10-30T08:45:29.824Z,13.87
2022-10-30T08:48:01.204Z,13.91
2022-10-30T08:50:30.337Z,14.00
2022-10-30T08:53:02.362Z,14.11
2022-10-30T08:55:32.897Z,14.19
2022-10-30T08:58:00.863Z,14.25
2022-10-30T09:00:29.117Z,14.33
2022-10-30T09:02:57.174Z,14.40
2022-10-30T09:05:26.679Z,14.50
2022-10-30T09:07:57.402Z,14.60
2022-10-30T09:10:25.199Z,14.65
2022-10-30T09:12:58.953Z,14.70
2022-10-30T09:15:27.015Z,14.76
2022-10-30T09:17:58.699Z,14.80
2022-10-30T09:20:27.663Z,14.84
2022-10-30T09:22:55.340Z,14.84
2022-10-30T09:25:22.983Z,14.90
2022-10-30T09:27:51.731Z,14.91
2022-10-30T09:30:21.092Z,14.94
2022-10-30T09:32:55.287Z,15.01
2022-10-30T09:35:23.152Z,15.06
2022-10-30T09:37:50.921Z,15.11
2022-10-30T09:40:24.141Z,15.15
2022-10-30T09:42:55.945Z,15.20
2022-10-30T09:45:56.004Z,15.24
2022-10-30T09:48:47.915Z,15.23
2022-10-30T09:51:34.924Z,15.20
2022-10-30T09:54:11.328Z,15.12
2022-10-30T09:56:44.963Z,15.11
2022-10-30T09:59:23.550Z,15.11
2022-10-30T10:01:57.308Z,15.11
2022-10-30T10:04:29.152Z,15.14
2022-10-30T10:07:02.453Z,15.17
2022-10-30T10:09:34.907Z,15.15
2022-10-30T10:12:06.685Z,15.28
2022-10-30T10:14:35.916Z,15.37
2022-10-30T10:17:10.945Z,15.60
2022-10-30T10:19:48.202Z,15.79
2022-10-30T10:22:22.526Z,16.05
2022-10-30T10:24:50.936Z,16.25
2022-10-30T10:27:29.033Z,16.30
2022-10-30T10:30:03.600Z,16.31
2022-10-30T10:33:07.655Z,16.30
2022-10-30T10:35:52.072Z,16.29
2022-10-30T10:38:33.829Z,16.28
2022-10-30T10:41:10.158Z,16.33
2022-10-30T10:43:50.161Z,16.37
2022-10-30T10:46:48.595Z,16.54
2022-10-30T10:49:35.776Z,16.57
2022-10-30T10:52:13.050Z,16.56
2022-10-30T10:54:43.916Z,16.51
2022-10-30T10:57:20.328Z,16.54
2022-10-30T10:59:55.126Z,16.54
2022-10-30T11:02:33.569Z,16.57
2022-10-30T11:05:08.262Z,16.62
2022-10-30T11:07:45.171Z,16.66
2022-10-30T11:10:15.205Z,16.69
2022-10-30T11:12:44.300Z,16.80
2022-10-30T11:15:38.414Z,16.98
2022-10-30T11:18:10.134Z,17.14
2022-10-30T11:20:44.649Z,17.37
2022-10-30T11:23:38.980Z,17.58
2022-10-30T11:26:32.092Z,17.77
2022-10-30T11:29:05.187Z,17.81
2022-10-30T11:31:34.794Z,17.78
2022-10-30T11:34:27.757Z,17.83
2022-10-30T11:36:57.027Z,17.86
2022-10-30T11:39:26.577Z,17.88
2022-10-30T11:42:13.157Z,17.90
2022-10-30T11:44:43.581Z,17.82
2022-10-30T11:47:14.719Z,17.85
2022-10-30T11:49:47.255Z,17.86
2022-10-30T11:52:21.436Z,17.86
2022-10-30T11:54:54.460Z,17.83
2022-10-30T11:57:24.672Z,17.82
2022-10-30T11:59:56.551Z,17.74
2022-10-30T12:02:29.960Z,17.68
2022-10-30T12:05:01.176Z,17.63
2022-10-30T12:07:32.610Z,17.57
2022-10-30T12:10:04.246Z,17.52
2022-10-30T12:12:39.019Z,17.48
2022-10-30T12:15:18.328Z,17.44
2022-10-30T12:17:51.932Z,17.42
2022-10-30T12:20:24.898Z,17.40
2022-10-30T12:22:55.900Z,17.37
2022-10-30T12:25:29.156Z,17.34
2022-10-30T12:28:00.879Z,17.36
2022-10-30T12:30:32.732Z,17.35
2022-10-30T12:33:06.273Z,17.32
2022-10-30T12:35:44.439Z,17.35
2022-10-30T12:38:19.335Z,17.33
2022-10-30T12:40:58.194Z,17.32
2022-10-30T12:43:27.520Z,17.30
2022-10-30T12:46:04.106Z,17.26
2022-10-30T12:48:37.780Z,17.20
2022-10-30T12:51:21.190Z,17.15
2022-10-30T12:53:59.576Z,17.10
2022-10-30T12:56:32.967Z,17.05
2022-10-30T12:59:17.577Z,17.03
2022-10-30T13:01:51.893Z,16.99
2022-10-30T13:04:24.755Z,16.98
2022-10-30T13:06:58.965Z,16.93
2022-10-30T13:09:38.695Z,16.86
2022-10-30T13:12:10.650Z,16.80
2022-10-30T13:14:42.888Z,16.74
2022-10-30T13:17:12.019Z,16.75
2022-10-30T13:19:40.484Z,16.70
2022-10-30T13:22:15.249Z,16.65
2022-10-30T13:24:52.369Z,16.60
2022-10-30T13:27:25.464Z,16.57
2022-10-30T13:29:59.219Z,16.56
2022-10-30T13:32:34.521Z,16.52
2022-10-30T13:35:17.428Z,16.49
2022-10-30T13:37:51.798Z,16.45
2022-10-30T13:40:31.669Z,16.42
2022-10-30T13:43:10.231Z,16.37
2022-10-30T13:45:51.723Z,16.35
2022-10-30T13:48:22.285Z,16.33
2022-10-30T13:51:17.445Z,16.32
2022-10-30T13:53:49.687Z,16.26
2022-10-30T13:56:19.955Z,16.20
2022-10-30T13:58:57.095Z,16.12
2022-10-30T14:01:33.764Z,15.93
2022-10-30T14:04:05.748Z,15.74
2022-10-30T14:06:43.260Z,15.63
2022-10-30T14:09:21.262Z,15.48
2022-10-30T14:11:53.306Z,15.39
2022-10-30T14:14:30.129Z,15.31
2022-10-30T14:17:10.583Z,15.23
2022-10-30T14:20:14.285Z,15.17
2022-10-30T14:22:43.717Z,15.07
2022-10-30T14:25:16.278Z,15.04
2022-10-30T14:27:56.080Z,15.02
2022-10-30T14:30:27.765Z,14.98
2022-10-30T14:32:55.185Z,14.96
2022-10-30T14:35:43.516Z,14.90
2022-10-30T14:38:35.131Z,14.86
2022-10-30T14:41:46.090Z,14.81
2022-10-30T14:45:03.254Z,14.74
2022-10-30T14:47:55.255Z,14.69
2022-10-30T14:50:39.838Z,14.65
2022-10-30T14:53:25.023Z,14.61
2022-10-30T14:55:58.944Z,14.59
2022-10-30T14:58:29.429Z,14.55
2022-10-30T15:01:23.673Z,14.53
2022-10-30T15:04:02.697Z,14.51
2022-10-30T15:06:40.903Z,14.47
2022-10-30T15:09:22.555Z,14.43
2022-10-30T15:12:21.279Z,14.43
2022-10-30T15:14:54.965Z,14.39
2022-10-30T15:17:30.287Z,14.40
2022-10-30T15:20:01.776Z,14.37
2022-10-30T15:22:31.810Z,14.39
2022-10-30T15:25:00.874Z,14.42
2022-10-30T15:27:30.200Z,14.40
2022-10-30T15:30:02.020Z,14.33
2022-10-30T15:32:31.728Z,14.28
2022-10-30T15:35:00.996Z,14.17
2022-10-30T15:37:30.393Z,14.03
2022-10-30T15:40:16.625Z,13.92
2022-10-30T15:42:48.063Z,13.86
2022-10-30T15:45:19.159Z,13.78
2022-10-30T15:47:53.837Z,13.69
2022-10-30T15:50:21.590Z,13.65
2022-10-30T15:52:50.201Z,13.61
2022-10-30T15:55:28.580Z,13.56
2022-10-30T15:58:03.886Z,13.59
2022-10-30T16:00:36.076Z,13.52
2022-10-30T16:03:07.191Z,13.51
2022-10-30T16:05:35.865Z,13.42
2022-10-30T16:08:14.328Z,13.49
2022-10-30T16:10:44.549Z,13.46
2022-10-30T16:13:16.756Z,13.40
2022-10-30T16:15:46.211Z,13.38
2022-10-30T16:18:21.181Z,13.37
2022-10-30T16:20:52.319Z,13.38
2022-10-30T16:23:20.461Z,13.41
2022-10-30T16:25:53.726Z,13.41
2022-10-30T16:28:28.379Z,13.41
2022-10-30T16:30:59.118Z,13.45
2022-10-30T16:33:30.199Z,13.43
2022-10-30T16:35:58.813Z,13.49
2022-10-30T16:38:31.466Z,13.49
2022-10-30T16:40:59.520Z,13.50
2022-10-30T16:43:29.479Z,13.46
2022-10-30T16:46:22.089Z,13.39
2022-10-30T16:48:57.903Z,13.31
2022-10-30T16:51:25.764Z,13.26
2022-10-30T16:53:53.684Z,13.12
2022-10-30T16:56:26.536Z,13.08
2022-10-30T16:58:58.388Z,12.98
2022-10-30T17:01:27.759Z,12.91
2022-10-30T17:03:58.512Z,12.74
2022-10-30T17:06:29.585Z,12.63
2022-10-30T17:08:59.188Z,12.48
2022-10-30T17:11:38.493Z,12.36
2022-10-30T17:14:17.988Z,12.32
2022-10-30T17:16:54.693Z,12.20
2022-10-30T17:19:47.584Z,12.15
2022-10-30T17:22:19.718Z,12.07
2022-10-30T17:24:48.043Z,11.91
2022-10-30T17:27:40.877Z,11.92
2022-10-30T17:30:30.106Z,11.83
2022-10-30T17:32:58.801Z,11.81
2022-10-30T17:35:28.310Z,11.79
2022-10-30T17:37:59.678Z,11.71
2022-10-30T17:40:32.776Z,11.62
2022-10-30T17:43:00.320Z,11.58
2022-10-30T17:45:31.667Z,11.56
2022-10-30T17:48:00.193Z,11.50
2022-10-30T17:50:33.459Z,11.51
2022-10-30T17:53:01.843Z,11.47
2022-10-30T17:55:33.714Z,11.42
2022-10-30T17:58:01.791Z,11.35
2022-10-30T18:00:29.544Z,11.27
2022-10-30T18:02:57.405Z,11.20
2022-10-30T18:05:29.321Z,11.11
2022-10-30T18:07:58.404Z,11.09
2022-10-30T18:10:28.540Z,11.06
2022-10-30T18:12:57.547Z,10.98
2022-10-30T18:15:31.391Z,10.89
2022-10-30T18:18:00.366Z,10.81
2022-10-30T18:20:28.535Z,10.78
2022-10-30T18:22:56.443Z,10.81
2022-10-30T18:25:27.265Z,10.77
2022-10-30T18:27:55.139Z,10.68
2022-10-30T18:30:23.031Z,10.65
2022-10-30T18:32:51.153Z,10.56
2022-10-30T18:35:25.960Z,10.50
2022-10-30T18:37:54.649Z,10.41
2022-10-30T18:40:23.028Z,10.38
2022-10-30T18:42:52.287Z,10.29
2022-10-30T18:45:22.782Z,10.31
2022-10-30T18:47:51.560Z,10.34
2022-10-30T18:50:21.885Z,10.34
2022-10-30T18:52:49.808Z,10.32
2022-10-30T18:55:20.728Z,10.29
2022-10-30T18:57:52.323Z,10.28
2022-10-30T19:00:20.593Z,10.28
2022-10-30T19:02:48.626Z,10.24
2022-10-30T19:05:25.116Z,10.25
2022-10-30T19:07:53.206Z,10.25
2022-10-30T19:10:21.140Z,10.14
2022-10-30T19:13:11.027Z,10.20
2022-10-30T19:15:42.302Z,10.11
2022-10-30T19:18:10.914Z,10.13
2022-10-30T19:20:58.870Z,10.15
2022-10-30T19:23:26.728Z,10.18
2022-10-30T19:25:54.486Z,10.08
2022-10-30T19:28:22.243Z,10.12
2022-10-30T19:30:51.877Z,10.14
2022-10-30T19:33:21.846Z,10.12
2022-10-30T19:35:54.256Z,10.10
2022-10-30T19:38:22.574Z,10.08
2022-10-30T19:40:50.691Z,9.98
2022-10-30T19:43:19.064Z,9.98
2022-10-30T19:45:49.073Z,9.93
2022-10-30T19:48:40.663Z,9.89
2022-10-30T19:51:10.252Z,9.87
2022-10-30T19:53:38.159Z,9.82
2022-10-30T19:56:06.826Z,9.78
2022-10-30T19:58:34.381Z,9.71
2022-10-30T20:01:02.455Z,9.58
2022-10-30T20:03:31.609Z,9.43
2022-10-30T20:05:59.359Z,9.32
2022-10-30T20:08:27.122Z,9.25
2022-10-30T20:10:57.570Z,9.22
2022-10-30T20:13:26.929Z,9.19
2022-10-30T20:15:56.372Z,9.18
2022-10-30T20:18:26.026Z,9.26
2022-10-30T20:20:58.048Z,9.28
2022-10-30T20:23:27.211Z,9.18
2022-10-30T20:25:58.543Z,9.07
2022-10-30T20:28:28.966Z,8.89
2022-10-30T20:30:57.208Z,8.77
2022-10-30T20:33:25.652Z,8.67
2022-10-30T20:35:55.623Z,8.54
2022-10-30T20:38:25.719Z,8.49
2022-10-30T20:40:53.837Z,8.43
2022-10-30T20:43:25.280Z,8.40
2022-10-30T20:45:52.983Z,8.40
2022-10-30T20:48:20.526Z,8.33
2022-10-30T20:50:50.883Z,8.27
2022-10-30T20:53:20.146Z,8.22
2022-10-30T20:55:47.782Z,8.25
2022-10-30T20:58:15.523Z,8.14
2022-10-30T21:00:43.599Z,8.10
2022-10-30T21:03:11.906Z,8.09
2022-10-30T21:05:44.626Z,8.05
2022-10-30T21:08:13.479Z,7.92
2022-10-30T21:10:43.747Z,7.92
2022-10-30T21:13:11.745Z,7.94
2022-10-30T21:15:40.858Z,7.92
2022-10-30T21:18:09.649Z,8.01
2022-10-30T21:20:37.780Z,8.03
2022-10-30T21:23:06.068Z,8.01
2022-10-30T21:25:33.717Z,7.99
2022-10-30T21:28:03.799Z,8.03
2022-10-30T21:30:31.547Z,7.93
2022-10-30T21:33:01.579Z,8.01
2022-10-30T21:35:29.571Z,8.00
2022-10-30T21:37:57.324Z,8.03
2022-10-30T21:40:24.916Z,8.05
2022-10-30T21:42:52.472Z,8.03
2022-10-30T21:45:21.945Z,8.00
2022-10-30T21:47:51.962Z,8.02
2022-10-30T21:50:19.653Z,7.98
2022-10-30T21:52:47.379Z,7.89
2022-10-30T21:55:15.147Z,7.80
2022-10-30T21:57:43.972Z,7.78
2022-10-30T22:00:13.156Z,7.79
2022-10-30T22:02:44.600Z,7.65
2022-10-30T22:05:12.489Z,7.64
2022-10-30T22:07:43.285Z,7.54
2022-10-30T22:10:10.883Z,7.49
2022-10-30T22:12:38.563Z,7.44
2022-10-30T22:15:07.666Z,7.36
2022-10-30T22:17:35.781Z,7.37
2022-10-30T22:20:06.593Z,7.24
2022-10-30T22:22:37.342Z,7.24
2022-10-30T22:25:05.499Z,7.19
2022-10-30T22:27:33.371Z,7.12
2022-10-30T22:30:01.448Z,7.00
2022-10-30T22:32:29.060Z,6.96
2022-10-30T22:34:56.649Z,6.97
2022-10-30T22:37:25.770Z,6.98
2022-10-30T22:39:53.965Z,7.04
2022-10-30T22:42:21.640Z,7.03
2022-10-30T22:44:49.528Z,7.08
2022-10-30T22:47:17.115Z,7.08
2022-10-30T22:49:46.392Z,7.08
2022-10-30T22:52:14.244Z,7.05
2022-10-30T22:54:44.374Z,6.92
2022-10-30T22:57:12.242Z,6.83
2022-10-30T22:59:40.763Z,6.81
2022-10-30T23:02:08.371Z,6.78
2022-10-30T23:04:36.397Z,6.74
2022-10-30T23:07:04.076Z,6.68
2022-10-30T23:09:32.117Z,6.62
2022-10-30T23:12:01.141Z,6.75
2022-10-30T23:14:29.628Z,6.83
2022-10-30T23:16:57.544Z,6.75
2022-10-30T23:19:25.811Z,6.74
2022-10-30T23:21:55.881Z,6.66
2022-10-30T23:24:23.947Z,6.52
2022-10-30T23:26:52.705Z,6.49
2022-10-30T23:29:22.524Z,6.46
2022-10-30T23:31:50.112Z,6.46
2022-10-30T23:34:18.541Z,6.55
2022-10-30T23:36:46.305Z,6.53
2022-10-30T23:39:15.932Z,6.58
2022-10-30T23:41:44.497Z,6.65
2022-10-30T23:44:14.124Z,6.71
2022-10-30T23:46:43.751Z,6.61
2022-10-30T23:49:11.657Z,6.58
2022-10-30T23:51:39.504Z,6.57
2022-10-30T23:54:09.819Z,6.58
2022-10-30T23:56:37.649Z,6.64
2022-10-30T23:59:05.368Z,6.60
